createdAt,value
2018-07-15T00:00:01.945Z,961.61
2018-07-15T00:01:01.929Z,961.65
2018-07-15T00:02:01.912Z,961.69
2018-07-15T00:03:01.897Z,961.66
2018-07-15T00:04:01.883Z,961.64
2018-07-15T00:05:03.369Z,961.61
2018-07-15T00:06:01.852Z,961.61
2018-07-15T00:07:01.839Z,961.56
2018-07-15T00:08:01.828Z,961.58
2018-07-15T00:09:01.810Z,961.55
2018-07-15T00:10:01.794Z,961.55
2018-07-15T00:11:01.780Z,961.51
2018-07-15T00:12:01.765Z,961.47
2018-07-15T00:13:01.751Z,961.48
2018-07-15T00:14:01.735Z,961.45
2018-07-15T00:15:01.721Z,961.45
2018-07-15T00:16:01.705Z,961.48
2018-07-15T00:17:01.746Z,961.47
2018-07-15T00:18:01.675Z,961.45
2018-07-15T00:19:01.662Z,961.45
2018-07-15T00:20:01.646Z,961.46
2018-07-15T00:21:01.629Z,961.49
2018-07-15T00:22:01.614Z,961.49
2018-07-15T00:23:01.599Z,961.50
2018-07-15T00:24:01.586Z,961.44
2018-07-15T00:25:01.571Z,961.48
2018-07-15T00:26:01.557Z,961.45
2018-07-15T00:27:01.539Z,961.46
2018-07-15T00:28:01.538Z,961.46
2018-07-15T00:29:01.511Z,961.42
2018-07-15T00:30:01.497Z,961.39
2018-07-15T00:31:01.478Z,961.41
2018-07-15T00:32:01.462Z,961.43
2018-07-15T00:33:01.446Z,961.43
2018-07-15T00:34:01.431Z,961.42
2018-07-15T00:35:01.418Z,961.44
2018-07-15T00:36:01.400Z,961.43
2018-07-15T00:37:01.386Z,961.39
2018-07-15T00:38:01.371Z,961.35
2018-07-15T00:39:01.355Z,961.35
2018-07-15T00:40:01.338Z,961.34
2018-07-15T00:41:01.324Z,961.38
2018-07-15T00:42:01.318Z,961.39
2018-07-15T00:43:01.292Z,961.36
2018-07-15T00:44:01.276Z,961.34
2018-07-15T00:45:01.262Z,961.33
2018-07-15T00:46:01.246Z,961.30
2018-07-15T00:47:01.229Z,961.28
2018-07-15T00:48:01.966Z,961.24
2018-07-15T00:49:01.199Z,961.24
2018-07-15T00:50:01.183Z,961.23
2018-07-15T00:51:01.167Z,961.22
2018-07-15T00:52:01.154Z,961.22
2018-07-15T00:53:01.135Z,961.20
2018-07-15T00:54:01.119Z,961.23
2018-07-15T00:55:01.104Z,961.27
2018-07-15T00:56:01.088Z,961.29
2018-07-15T00:57:01.071Z,961.32
2018-07-15T00:58:01.055Z,961.30
2018-07-15T00:59:01.038Z,961.33
2018-07-15T01:00:01.023Z,961.29
2018-07-15T01:01:01.008Z,961.28
2018-07-15T01:02:00.991Z,961.29
2018-07-15T01:03:00.975Z,961.29
2018-07-15T01:04:00.957Z,961.25
2018-07-15T01:05:00.948Z,961.26
2018-07-15T01:06:00.925Z,961.24
2018-07-15T01:07:00.909Z,961.22
2018-07-15T01:08:00.894Z,961.24
2018-07-15T01:09:00.878Z,961.24
2018-07-15T01:10:00.862Z,961.24
2018-07-15T01:11:00.843Z,961.22
2018-07-15T01:12:00.828Z,961.23
2018-07-15T01:13:00.812Z,961.24
2018-07-15T01:14:00.796Z,961.24
2018-07-15T01:15:00.779Z,961.21
2018-07-15T01:16:00.764Z,961.26
2018-07-15T01:17:00.747Z,961.25
2018-07-15T01:18:00.730Z,961.29
2018-07-15T01:19:01.464Z,961.27
2018-07-15T01:20:00.697Z,961.27
2018-07-15T01:21:00.682Z,961.28
2018-07-15T01:22:00.665Z,961.21
2018-07-15T01:23:00.648Z,961.19
2018-07-15T01:24:00.631Z,961.21
2018-07-15T01:25:00.615Z,961.21
2018-07-15T01:26:00.604Z,961.26
2018-07-15T01:27:00.581Z,961.25
2018-07-15T01:28:00.566Z,961.28
2018-07-15T01:29:00.549Z,961.32
2018-07-15T01:30:00.532Z,961.31
2018-07-15T01:31:00.516Z,961.29
2018-07-15T01:32:00.499Z,961.33
2018-07-15T01:33:00.483Z,961.29
2018-07-15T01:34:00.467Z,961.29
2018-07-15T01:35:00.449Z,961.28
2018-07-15T01:36:00.437Z,961.31
2018-07-15T01:37:00.416Z,961.27
2018-07-15T01:38:00.400Z,961.30
2018-07-15T01:39:00.384Z,961.28
2018-07-15T01:40:00.367Z,961.34
2018-07-15T01:41:00.352Z,961.33
2018-07-15T01:42:00.334Z,961.34
2018-07-15T01:43:00.317Z,961.33
2018-07-15T01:44:00.304Z,961.37
2018-07-15T01:45:00.285Z,961.34
2018-07-15T01:46:00.268Z,961.35
2018-07-15T01:47:00.251Z,961.31
2018-07-15T01:48:00.235Z,961.28
2018-07-15T01:49:00.218Z,961.24
2018-07-15T01:50:00.201Z,961.19
2018-07-15T01:51:00.186Z,961.15
2018-07-15T01:52:00.169Z,961.12
2018-07-15T01:53:00.154Z,961.12
2018-07-15T01:54:00.134Z,961.10
2018-07-15T01:55:00.121Z,961.08
2018-07-15T01:56:00.103Z,961.01
2018-07-15T01:57:00.087Z,961.03
2018-07-15T01:58:00.071Z,961.06
2018-07-15T01:59:00.054Z,960.96
2018-07-15T02:00:00.074Z,961.00
2018-07-15T02:01:00.028Z,960.98
2018-07-15T02:02:00.006Z,960.96
2018-07-15T02:02:59.989Z,961.00
2018-07-15T02:03:59.973Z,960.98
2018-07-15T02:04:59.956Z,960.96
2018-07-15T02:05:59.940Z,960.94
2018-07-15T02:06:59.924Z,960.96
2018-07-15T02:07:59.908Z,960.96
2018-07-15T02:08:59.891Z,960.91
2018-07-15T02:09:59.874Z,960.92
2018-07-15T02:10:59.859Z,960.93
2018-07-15T02:11:59.842Z,960.93
2018-07-15T02:12:59.825Z,960.91
2018-07-15T02:13:59.809Z,960.86
2018-07-15T02:14:59.794Z,960.88
2018-07-15T02:15:59.777Z,960.81
2018-07-15T02:16:59.761Z,960.82
2018-07-15T02:17:59.743Z,960.80
2018-07-15T02:18:59.727Z,960.77
2018-07-15T02:19:59.711Z,960.76
2018-07-15T02:20:59.697Z,960.72
2018-07-15T02:21:59.678Z,960.67
2018-07-15T02:22:59.661Z,960.65
2018-07-15T02:23:59.645Z,960.65
2018-07-15T02:24:59.630Z,960.65
2018-07-15T02:25:59.613Z,960.60
2018-07-15T02:26:59.597Z,960.62
2018-07-15T02:27:59.580Z,960.61
2018-07-15T02:28:59.565Z,960.59
2018-07-15T02:29:59.547Z,960.58
2018-07-15T02:30:59.533Z,960.58
2018-07-15T02:31:59.516Z,960.54
2018-07-15T02:32:59.500Z,960.59
2018-07-15T02:33:59.484Z,960.57
2018-07-15T02:34:59.466Z,960.59
2018-07-15T02:35:59.451Z,960.55
2018-07-15T02:36:59.436Z,960.54
2018-07-15T02:37:59.423Z,960.57
2018-07-15T02:38:59.405Z,960.60
2018-07-15T02:39:59.388Z,960.58
2018-07-15T02:40:59.372Z,960.60
2018-07-15T02:41:59.358Z,960.52
2018-07-15T02:42:59.340Z,960.51
2018-07-15T02:43:59.322Z,960.46
2018-07-15T02:44:59.307Z,960.47
2018-07-15T02:45:59.291Z,960.46
2018-07-15T02:46:59.279Z,960.46
2018-07-15T02:47:59.260Z,960.48
2018-07-15T02:48:59.244Z,960.50
2018-07-15T02:49:59.227Z,960.55
2018-07-15T02:50:59.211Z,960.55
2018-07-15T02:51:59.196Z,960.58
2018-07-15T02:52:59.179Z,960.56
2018-07-15T02:53:59.166Z,960.64
2018-07-15T02:55:02.906Z,960.65
2018-07-15T02:55:59.131Z,960.65
2018-07-15T02:56:59.114Z,960.64
2018-07-15T02:57:59.099Z,960.65
2018-07-15T02:58:59.086Z,960.67
2018-07-15T02:59:59.066Z,960.67
2018-07-15T03:00:59.051Z,960.72
2018-07-15T03:01:59.036Z,960.73
2018-07-15T03:02:59.018Z,960.67
2018-07-15T03:03:59.002Z,960.76
2018-07-15T03:04:58.987Z,960.73
2018-07-15T03:05:58.977Z,960.69
2018-07-15T03:06:58.955Z,960.71
2018-07-15T03:07:58.938Z,960.76
2018-07-15T03:08:58.923Z,960.74
2018-07-15T03:09:58.907Z,960.75
2018-07-15T03:10:58.898Z,960.72
2018-07-15T03:11:59.627Z,960.76
2018-07-15T03:12:58.859Z,960.79
2018-07-15T03:13:58.842Z,960.79
2018-07-15T03:14:58.829Z,960.76
2018-07-15T03:15:58.814Z,960.77
2018-07-15T03:16:58.795Z,960.71
2018-07-15T03:17:58.779Z,960.75
2018-07-15T03:18:58.766Z,960.69
2018-07-15T03:19:58.749Z,960.69
2018-07-15T03:20:58.729Z,960.68
2018-07-15T03:21:58.713Z,960.64
2018-07-15T03:22:58.697Z,960.59
2018-07-15T03:23:58.680Z,960.58
2018-07-15T03:24:58.666Z,960.57
2018-07-15T03:25:58.647Z,960.60
2018-07-15T03:26:58.631Z,960.60
2018-07-15T03:27:59.366Z,960.59
2018-07-15T03:28:58.599Z,960.60
2018-07-15T03:29:58.582Z,960.64
2018-07-15T03:30:58.569Z,960.63
2018-07-15T03:31:58.550Z,960.63
2018-07-15T03:32:58.533Z,960.64
2018-07-15T03:33:58.547Z,960.61
2018-07-15T03:34:58.500Z,960.61
2018-07-15T03:35:58.484Z,960.65
2018-07-15T03:36:58.466Z,960.66
2018-07-15T03:37:58.449Z,960.63
2018-07-15T03:38:58.433Z,960.60
2018-07-15T03:39:58.499Z,960.57
2018-07-15T03:40:58.402Z,960.53
2018-07-15T03:41:58.384Z,960.54
2018-07-15T03:42:58.367Z,960.52
2018-07-15T03:43:58.353Z,960.53
2018-07-15T03:44:58.335Z,960.55
2018-07-15T03:45:58.319Z,960.49
2018-07-15T03:46:58.303Z,960.54
2018-07-15T03:47:58.287Z,960.52
2018-07-15T03:48:58.271Z,960.51
2018-07-15T03:49:58.254Z,960.50
2018-07-15T03:50:58.238Z,960.52
2018-07-15T03:51:58.221Z,960.51
2018-07-15T03:52:58.206Z,960.51
2018-07-15T03:53:58.189Z,960.54
2018-07-15T03:54:58.172Z,960.55
2018-07-15T03:55:58.156Z,960.55
2018-07-15T03:56:58.140Z,960.53
2018-07-15T03:57:58.123Z,960.49
2018-07-15T03:58:58.108Z,960.55
2018-07-15T03:59:58.091Z,960.53
2018-07-15T04:00:58.076Z,960.50
2018-07-15T04:01:58.059Z,960.52
2018-07-15T04:02:58.041Z,960.44
2018-07-15T04:03:58.026Z,960.44
2018-07-15T04:04:58.011Z,960.44
2018-07-15T04:05:57.993Z,960.45
2018-07-15T04:06:57.976Z,960.47
2018-07-15T04:07:57.962Z,960.50
2018-07-15T04:08:58.041Z,960.52
2018-07-15T04:09:57.929Z,960.52
2018-07-15T04:10:57.913Z,960.56
2018-07-15T04:11:57.897Z,960.57
2018-07-15T04:12:57.880Z,960.57
2018-07-15T04:13:58.614Z,960.56
2018-07-15T04:14:57.848Z,960.54
2018-07-15T04:15:57.833Z,960.54
2018-07-15T04:16:57.816Z,960.52
2018-07-15T04:17:57.797Z,960.54
2018-07-15T04:18:57.782Z,960.53
2018-07-15T04:19:57.765Z,960.56
2018-07-15T04:20:57.750Z,960.54
2018-07-15T04:21:57.732Z,960.53
2018-07-15T04:22:57.716Z,960.56
2018-07-15T04:23:57.699Z,960.53
2018-07-15T04:24:57.683Z,960.54
2018-07-15T04:25:57.667Z,960.56
2018-07-15T04:26:57.651Z,960.56
2018-07-15T04:27:57.635Z,960.59
2018-07-15T04:28:57.621Z,960.62
2018-07-15T04:29:57.600Z,960.57
2018-07-15T04:30:57.584Z,960.56
2018-07-15T04:31:57.569Z,960.56
2018-07-15T04:32:57.552Z,960.56
2018-07-15T04:33:57.537Z,960.58
2018-07-15T04:34:57.518Z,960.60
2018-07-15T04:35:57.503Z,960.61
2018-07-15T04:36:57.487Z,960.64
2018-07-15T04:37:57.503Z,960.65
2018-07-15T04:38:57.455Z,960.68
2018-07-15T04:39:57.437Z,960.70
2018-07-15T04:40:57.421Z,960.69
2018-07-15T04:41:57.406Z,960.71
2018-07-15T04:42:57.390Z,960.73
2018-07-15T04:43:57.430Z,960.73
2018-07-15T04:44:57.357Z,960.71
2018-07-15T04:45:57.339Z,960.72
2018-07-15T04:46:57.325Z,960.74
2018-07-15T04:47:57.310Z,960.72
2018-07-15T04:48:57.291Z,960.73
2018-07-15T04:49:57.273Z,960.70
2018-07-15T04:50:57.258Z,960.70
2018-07-15T04:51:57.242Z,960.69
2018-07-15T04:52:57.225Z,960.68
2018-07-15T04:53:57.209Z,960.66
2018-07-15T04:54:57.191Z,960.71
2018-07-15T04:55:57.927Z,960.74
2018-07-15T04:56:57.161Z,960.72
2018-07-15T04:57:57.144Z,960.74
2018-07-15T04:58:57.128Z,960.78
2018-07-15T04:59:57.112Z,960.77
2018-07-15T05:00:57.096Z,960.76
2018-07-15T05:01:57.119Z,960.74
2018-07-15T05:02:57.063Z,960.76
2018-07-15T05:03:57.045Z,960.76
2018-07-15T05:04:57.029Z,960.69
2018-07-15T05:05:57.012Z,960.72
2018-07-15T05:06:56.999Z,960.75
2018-07-15T05:07:56.980Z,960.76
2018-07-15T05:08:56.964Z,960.78
2018-07-15T05:09:56.947Z,960.78
2018-07-15T05:10:56.931Z,960.77
2018-07-15T05:11:56.915Z,960.76
2018-07-15T05:12:56.898Z,960.79
2018-07-15T05:13:56.886Z,960.80
2018-07-15T05:14:56.866Z,960.85
2018-07-15T05:15:56.849Z,960.87
2018-07-15T05:16:56.833Z,960.84
2018-07-15T05:17:56.817Z,960.87
2018-07-15T05:18:56.800Z,960.85
2018-07-15T05:19:56.785Z,960.83
2018-07-15T05:20:56.769Z,960.85
2018-07-15T05:21:56.751Z,960.86
2018-07-15T05:22:56.736Z,960.84
2018-07-15T05:23:56.720Z,960.87
2018-07-15T05:24:56.777Z,960.87
2018-07-15T05:25:56.686Z,960.85
2018-07-15T05:26:56.671Z,960.84
2018-07-15T05:27:56.655Z,960.81
2018-07-15T05:28:56.639Z,960.85
2018-07-15T05:29:56.622Z,960.88
2018-07-15T05:30:56.605Z,960.88
2018-07-15T05:31:56.592Z,960.89
2018-07-15T05:32:56.573Z,960.92
2018-07-15T05:33:56.557Z,960.97
2018-07-15T05:34:56.565Z,960.97
2018-07-15T05:35:56.525Z,960.97
2018-07-15T05:36:56.511Z,960.98
2018-07-15T05:37:56.494Z,960.96
2018-07-15T05:38:56.481Z,960.97
2018-07-15T05:39:56.462Z,960.98
2018-07-15T05:40:56.447Z,960.99
2018-07-15T05:41:56.430Z,960.94
2018-07-15T05:42:56.415Z,960.98
2018-07-15T05:43:56.397Z,960.97
2018-07-15T05:44:56.387Z,961.00
2018-07-15T05:45:56.366Z,961.00
2018-07-15T05:46:56.355Z,961.01
2018-07-15T05:47:56.333Z,961.03
2018-07-15T05:48:56.318Z,960.97
2018-07-15T05:49:56.302Z,961.00
2018-07-15T05:50:56.287Z,960.96
2018-07-15T05:51:56.294Z,960.96
2018-07-15T05:52:56.254Z,960.93
2018-07-15T05:53:56.239Z,960.92
2018-07-15T05:54:56.223Z,960.93
2018-07-15T05:55:56.208Z,960.93
2018-07-15T05:56:56.192Z,960.91
2018-07-15T05:57:56.219Z,960.90
2018-07-15T05:58:56.159Z,960.92
2018-07-15T05:59:56.143Z,960.95
2018-07-15T06:00:56.129Z,960.94
2018-07-15T06:01:56.113Z,960.92
2018-07-15T06:02:56.100Z,960.94
2018-07-15T06:03:56.081Z,960.96
2018-07-15T06:04:56.067Z,961.00
2018-07-15T06:05:56.049Z,961.01
2018-07-15T06:06:56.035Z,961.07
2018-07-15T06:07:56.019Z,961.04
2018-07-15T06:08:56.004Z,961.05
2018-07-15T06:09:55.986Z,961.07
2018-07-15T06:10:55.971Z,961.04
2018-07-15T06:11:55.956Z,961.02
2018-07-15T06:12:55.940Z,960.98
2018-07-15T06:13:55.924Z,960.96
2018-07-15T06:14:55.912Z,960.99
2018-07-15T06:15:55.894Z,960.95
2018-07-15T06:16:55.879Z,960.95
2018-07-15T06:17:55.862Z,960.93
2018-07-15T06:18:55.850Z,960.94
2018-07-15T06:19:55.836Z,960.92
2018-07-15T06:20:55.816Z,960.92
2018-07-15T06:21:55.800Z,960.92
2018-07-15T06:22:55.787Z,960.93
2018-07-15T06:23:55.770Z,960.89
2018-07-15T06:24:55.754Z,960.91
2018-07-15T06:25:55.738Z,960.91
2018-07-15T06:26:55.722Z,960.89
2018-07-15T06:27:55.708Z,960.87
2018-07-15T06:28:55.692Z,960.87
2018-07-15T06:29:55.676Z,960.88
2018-07-15T06:30:55.663Z,960.84
2018-07-15T06:31:55.739Z,960.83
2018-07-15T06:32:55.629Z,960.87
2018-07-15T06:33:55.612Z,960.88
2018-07-15T06:34:55.599Z,960.89
2018-07-15T06:35:55.584Z,960.90
2018-07-15T06:36:55.570Z,960.93
2018-07-15T06:37:55.552Z,960.95
2018-07-15T06:38:55.537Z,960.98
2018-07-15T06:39:55.523Z,960.96
2018-07-15T06:40:55.507Z,960.97
2018-07-15T06:41:55.490Z,961.02
2018-07-15T06:42:55.476Z,961.04
2018-07-15T06:43:55.461Z,961.05
2018-07-15T06:44:55.446Z,961.05
2018-07-15T06:45:55.432Z,961.04
2018-07-15T06:46:55.417Z,961.06
2018-07-15T06:47:55.399Z,961.02
2018-07-15T06:48:55.383Z,961.04
2018-07-15T06:49:55.369Z,961.05
2018-07-15T06:50:55.353Z,961.08
2018-07-15T06:51:55.338Z,961.05
2018-07-15T06:52:55.322Z,961.05
2018-07-15T06:53:55.321Z,961.07
2018-07-15T06:54:55.295Z,961.07
2018-07-15T06:55:55.336Z,961.08
2018-07-15T06:56:55.263Z,961.06
2018-07-15T06:57:55.248Z,961.06
2018-07-15T06:58:55.232Z,961.05
2018-07-15T06:59:55.216Z,961.06
2018-07-15T07:00:55.200Z,961.04
2018-07-15T07:01:55.185Z,961.03
2018-07-15T07:02:55.170Z,961.01
2018-07-15T07:03:55.156Z,961.03
2018-07-15T07:04:55.140Z,961.03
2018-07-15T07:05:55.125Z,961.02
2018-07-15T07:06:55.109Z,961.07
2018-07-15T07:07:55.845Z,961.05
2018-07-15T07:08:55.080Z,961.09
2018-07-15T07:09:55.067Z,961.12
2018-07-15T07:10:55.049Z,961.12
2018-07-15T07:11:55.035Z,961.15
2018-07-15T07:12:55.022Z,961.18
2018-07-15T07:13:55.003Z,961.16
2018-07-15T07:14:54.989Z,961.13
2018-07-15T07:15:54.974Z,961.12
2018-07-15T07:16:54.959Z,961.12
2018-07-15T07:17:54.944Z,961.11
2018-07-15T07:18:54.929Z,961.10
2018-07-15T07:19:54.916Z,961.13
2018-07-15T07:20:54.904Z,961.14
2018-07-15T07:21:54.887Z,961.17
2018-07-15T07:22:54.869Z,961.16
2018-07-15T07:23:54.853Z,961.21
2018-07-15T07:24:54.840Z,961.18
2018-07-15T07:25:54.825Z,961.17
2018-07-15T07:26:54.810Z,961.17
2018-07-15T07:27:54.795Z,961.13
2018-07-15T07:28:55.618Z,961.13
2018-07-15T07:29:54.764Z,961.17
2018-07-15T07:30:54.750Z,961.14
2018-07-15T07:31:54.739Z,961.17
2018-07-15T07:32:54.721Z,961.13
2018-07-15T07:33:54.705Z,961.12
2018-07-15T07:34:54.690Z,961.15
2018-07-15T07:35:54.680Z,961.16
2018-07-15T07:36:54.661Z,961.14
2018-07-15T07:37:54.647Z,961.16
2018-07-15T07:38:54.632Z,961.15
2018-07-15T07:39:54.616Z,961.19
2018-07-15T07:40:54.603Z,961.17
2018-07-15T07:41:54.586Z,961.18
2018-07-15T07:42:54.572Z,961.16
2018-07-15T07:43:54.558Z,961.17
2018-07-15T07:44:54.547Z,961.19
2018-07-15T07:45:54.529Z,961.14
2018-07-15T07:46:54.562Z,961.16
2018-07-15T07:47:54.501Z,961.15
2018-07-15T07:48:54.486Z,961.10
2018-07-15T07:49:54.471Z,961.11
2018-07-15T07:50:54.456Z,961.05
2018-07-15T07:51:54.442Z,961.03
2018-07-15T07:52:54.428Z,960.98
2018-07-15T07:53:54.412Z,960.96
2018-07-15T07:54:54.399Z,960.98
2018-07-15T07:55:54.385Z,960.90
2018-07-15T07:56:54.371Z,960.92
2018-07-15T07:57:54.356Z,960.91
2018-07-15T07:58:54.340Z,960.87
2018-07-15T07:59:54.327Z,960.86
2018-07-15T08:00:56.565Z,960.91
2018-07-15T08:01:54.333Z,960.85
2018-07-15T08:02:54.282Z,960.83
2018-07-15T08:03:54.269Z,960.83
2018-07-15T08:04:54.255Z,960.86
2018-07-15T08:05:54.245Z,960.85
2018-07-15T08:06:54.977Z,960.77
2018-07-15T08:07:54.213Z,960.76
2018-07-15T08:08:54.197Z,960.69
2018-07-15T08:09:54.185Z,960.74
2018-07-15T08:10:54.169Z,960.75
2018-07-15T08:11:54.158Z,960.72
2018-07-15T08:12:54.141Z,960.67
2018-07-15T08:13:54.126Z,960.68
2018-07-15T08:14:54.112Z,960.67
2018-07-15T08:15:54.097Z,960.64
2018-07-15T08:16:54.082Z,960.64
2018-07-15T08:17:54.067Z,960.67
2018-07-15T08:18:54.053Z,960.66
2018-07-15T08:19:54.040Z,960.63
2018-07-15T08:20:54.025Z,960.65
2018-07-15T08:21:54.011Z,960.67
2018-07-15T08:22:53.997Z,960.62
2018-07-15T08:23:53.981Z,960.64
2018-07-15T08:24:53.968Z,960.59
2018-07-15T08:25:53.955Z,960.63
2018-07-15T08:26:53.939Z,960.58
2018-07-15T08:27:53.924Z,960.61
2018-07-15T08:28:53.912Z,960.59
2018-07-15T08:29:53.899Z,960.56
2018-07-15T08:30:53.881Z,960.54
2018-07-15T08:31:53.869Z,960.51
2018-07-15T08:32:53.855Z,960.53
2018-07-15T08:33:56.092Z,960.48
2018-07-15T08:34:53.911Z,960.51
2018-07-15T08:35:53.815Z,960.48
2018-07-15T08:36:53.798Z,960.52
2018-07-15T08:37:53.784Z,960.49
2018-07-15T08:38:53.770Z,960.47
2018-07-15T08:39:54.506Z,960.48
2018-07-15T08:40:53.741Z,960.47
2018-07-15T08:41:53.727Z,960.47
2018-07-15T08:42:53.713Z,960.46
2018-07-15T08:43:53.699Z,960.46
2018-07-15T08:44:53.685Z,960.47
2018-07-15T08:45:53.704Z,960.44
2018-07-15T08:46:53.658Z,960.44
2018-07-15T08:47:53.645Z,960.43
2018-07-15T08:48:53.630Z,960.42
2018-07-15T08:49:53.616Z,960.42
2018-07-15T08:50:56.610Z,960.40
2018-07-15T08:51:53.591Z,960.42
2018-07-15T08:52:53.576Z,960.41
2018-07-15T08:53:53.564Z,960.41
2018-07-15T08:54:53.549Z,960.39
2018-07-15T08:55:53.535Z,960.39
2018-07-15T08:56:54.273Z,960.41
2018-07-15T08:57:53.507Z,960.42
2018-07-15T08:58:53.493Z,960.41
2018-07-15T08:59:53.480Z,960.41
2018-07-15T09:00:53.468Z,960.40
2018-07-15T09:01:53.453Z,960.43
2018-07-15T09:02:53.441Z,960.41
2018-07-15T09:03:53.426Z,960.44
2018-07-15T09:04:53.415Z,960.40
2018-07-15T09:05:53.400Z,960.37
2018-07-15T09:06:53.387Z,960.37
2018-07-15T09:07:53.376Z,960.35
2018-07-15T09:08:53.360Z,960.36
2018-07-15T09:09:53.346Z,960.38
2018-07-15T09:10:53.333Z,960.37
2018-07-15T09:11:53.320Z,960.35
2018-07-15T09:12:53.308Z,960.35
2018-07-15T09:13:53.293Z,960.33
2018-07-15T09:14:53.283Z,960.35
2018-07-15T09:15:53.268Z,960.32
2018-07-15T09:16:53.253Z,960.33
2018-07-15T09:17:53.240Z,960.36
2018-07-15T09:18:53.230Z,960.35
2018-07-15T09:19:53.213Z,960.30
2018-07-15T09:20:53.200Z,960.28
2018-07-15T09:21:53.232Z,960.29
2018-07-15T09:22:53.173Z,960.28
2018-07-15T09:23:53.161Z,960.29
2018-07-15T09:24:53.149Z,960.29
2018-07-15T09:25:53.134Z,960.29
2018-07-15T09:26:53.120Z,960.27
2018-07-15T09:27:53.151Z,960.24
2018-07-15T09:28:53.099Z,960.28
2018-07-15T09:29:53.082Z,960.24
2018-07-15T09:30:53.069Z,960.21
2018-07-15T09:31:53.056Z,960.22
2018-07-15T09:32:53.043Z,960.20
2018-07-15T09:33:53.029Z,960.22
2018-07-15T09:34:53.015Z,960.22
2018-07-15T09:35:53.007Z,960.23
2018-07-15T09:36:52.991Z,960.21
2018-07-15T09:37:52.977Z,960.22
2018-07-15T09:38:52.962Z,960.21
2018-07-15T09:39:52.953Z,960.18
2018-07-15T09:40:52.940Z,960.22
2018-07-15T09:41:52.923Z,960.17
2018-07-15T09:42:52.910Z,960.18
2018-07-15T09:43:52.898Z,960.18
2018-07-15T09:44:52.886Z,960.14
2018-07-15T09:45:52.874Z,960.12
2018-07-15T09:46:52.861Z,960.13
2018-07-15T09:47:52.846Z,960.11
2018-07-15T09:48:52.835Z,960.12
2018-07-15T09:49:52.819Z,960.11
2018-07-15T09:50:52.807Z,960.09
2018-07-15T09:51:52.794Z,960.10
2018-07-15T09:52:52.782Z,960.07
2018-07-15T09:53:52.768Z,960.04
2018-07-15T09:54:52.755Z,960.07
2018-07-15T09:55:52.744Z,960.06
2018-07-15T09:56:52.731Z,960.03
2018-07-15T09:57:52.717Z,960.04
2018-07-15T09:58:52.703Z,960.02
2018-07-15T09:59:52.692Z,960.02
2018-07-15T10:00:52.680Z,960.01
2018-07-15T10:01:52.666Z,960.02
2018-07-15T10:02:52.653Z,960.00
2018-07-15T10:03:52.644Z,959.99
2018-07-15T10:04:52.628Z,960.03
2018-07-15T10:05:52.616Z,960.03
2018-07-15T10:06:52.605Z,959.98
2018-07-15T10:07:52.591Z,959.98
2018-07-15T10:08:52.578Z,959.97
2018-07-15T10:09:52.564Z,959.98
2018-07-15T10:10:52.553Z,960.01
2018-07-15T10:11:52.541Z,959.97
2018-07-15T10:12:52.528Z,959.96
2018-07-15T10:13:52.516Z,959.92
2018-07-15T10:14:52.503Z,959.93
2018-07-15T10:15:53.992Z,959.99
2018-07-15T10:16:52.480Z,959.96
2018-07-15T10:17:52.467Z,959.94
2018-07-15T10:18:52.463Z,959.95
2018-07-15T10:19:52.444Z,959.94
2018-07-15T10:20:52.429Z,959.92
2018-07-15T10:21:53.918Z,959.89
2018-07-15T10:22:52.408Z,959.90
2018-07-15T10:23:52.392Z,959.86
2018-07-15T10:24:52.380Z,959.89
2018-07-15T10:25:52.368Z,959.96
2018-07-15T10:26:52.356Z,959.91
2018-07-15T10:27:52.347Z,959.89
2018-07-15T10:28:52.332Z,959.88
2018-07-15T10:29:52.321Z,959.89
2018-07-15T10:30:52.309Z,959.91
2018-07-15T10:31:52.296Z,959.87
2018-07-15T10:32:52.284Z,959.83
2018-07-15T10:33:52.272Z,959.83
2018-07-15T10:34:52.258Z,959.79
2018-07-15T10:35:52.247Z,959.75
2018-07-15T10:36:52.237Z,959.72
2018-07-15T10:37:52.224Z,959.77
2018-07-15T10:38:52.216Z,959.74
2018-07-15T10:39:52.199Z,959.75
2018-07-15T10:40:52.190Z,959.71
2018-07-15T10:41:52.177Z,959.71
2018-07-15T10:42:52.164Z,959.66
2018-07-15T10:43:52.153Z,959.72
2018-07-15T10:44:52.143Z,959.67
2018-07-15T10:45:52.129Z,959.66
2018-07-15T10:46:52.118Z,959.64
2018-07-15T10:47:52.109Z,959.70
2018-07-15T10:48:52.100Z,959.67
2018-07-15T10:49:52.081Z,959.66
2018-07-15T10:50:52.069Z,959.62
2018-07-15T10:51:52.058Z,959.56
2018-07-15T10:52:52.107Z,959.59
2018-07-15T10:53:52.784Z,959.56
2018-07-15T10:54:52.024Z,959.48
2018-07-15T10:55:52.012Z,959.49
2018-07-15T10:56:52.010Z,959.48
2018-07-15T10:57:51.988Z,959.46
2018-07-15T10:58:51.975Z,959.42
2018-07-15T10:59:51.964Z,959.47
2018-07-15T11:00:51.962Z,959.39
2018-07-15T11:01:51.940Z,959.43
2018-07-15T11:02:51.929Z,959.43
2018-07-15T11:03:51.917Z,959.44
2018-07-15T11:04:52.655Z,959.47
2018-07-15T11:05:51.892Z,959.45
2018-07-15T11:06:51.881Z,959.45
2018-07-15T11:07:51.869Z,959.44
2018-07-15T11:08:51.857Z,959.44
2018-07-15T11:09:51.847Z,959.43
2018-07-15T11:10:51.832Z,959.40
2018-07-15T11:11:51.821Z,959.37
2018-07-15T11:12:51.809Z,959.40
2018-07-15T11:13:51.798Z,959.41
2018-07-15T11:14:51.785Z,959.35
2018-07-15T11:15:51.774Z,959.33
2018-07-15T11:16:51.762Z,959.31
2018-07-15T11:17:51.750Z,959.32
2018-07-15T11:18:51.738Z,959.34
2018-07-15T11:19:51.726Z,959.32
2018-07-15T11:20:51.716Z,959.26
2018-07-15T11:21:51.702Z,959.24
2018-07-15T11:22:51.691Z,959.26
2018-07-15T11:23:51.679Z,959.26
2018-07-15T11:24:51.667Z,959.25
2018-07-15T11:25:51.656Z,959.22
2018-07-15T11:26:51.643Z,959.25
2018-07-15T11:27:51.632Z,959.22
2018-07-15T11:28:51.621Z,959.20
2018-07-15T11:29:51.608Z,959.18
2018-07-15T11:30:51.753Z,959.17
2018-07-15T11:31:51.585Z,959.16
2018-07-15T11:32:51.575Z,959.15
2018-07-15T11:33:51.563Z,959.11
2018-07-15T11:34:51.601Z,959.12
2018-07-15T11:35:51.540Z,959.12
2018-07-15T11:36:51.529Z,959.09
2018-07-15T11:37:51.516Z,959.11
2018-07-15T11:38:51.504Z,959.09
2018-07-15T11:39:51.493Z,959.07
2018-07-15T11:40:51.481Z,959.03
2018-07-15T11:41:51.470Z,959.02
2018-07-15T11:42:52.212Z,958.93
2018-07-15T11:43:51.449Z,958.93
2018-07-15T11:44:51.440Z,958.91
2018-07-15T11:45:51.423Z,958.87
2018-07-15T11:46:51.411Z,958.89
2018-07-15T11:47:51.403Z,958.89
2018-07-15T11:48:51.390Z,958.89
2018-07-15T11:49:51.380Z,958.88
2018-07-15T11:50:51.366Z,958.89
2018-07-15T11:51:51.356Z,958.89
2018-07-15T11:52:51.344Z,958.88
2018-07-15T11:53:51.332Z,958.86
2018-07-15T11:54:51.320Z,958.87
2018-07-15T11:55:51.309Z,958.85
2018-07-15T11:56:51.298Z,958.85
2018-07-15T11:57:51.285Z,958.83
2018-07-15T11:58:52.025Z,958.77
2018-07-15T11:59:51.262Z,958.77
2018-07-15T12:00:51.249Z,958.77
2018-07-15T12:01:51.270Z,958.79
2018-07-15T12:02:51.225Z,958.73
2018-07-15T12:03:51.215Z,958.78
2018-07-15T12:04:51.203Z,958.76
2018-07-15T12:05:51.191Z,958.75
2018-07-15T12:06:51.180Z,958.70
2018-07-15T12:07:51.169Z,958.75
2018-07-15T12:08:51.161Z,958.73
2018-07-15T12:09:51.145Z,958.71
2018-07-15T12:10:51.135Z,958.73
2018-07-15T12:11:51.123Z,958.72
2018-07-15T12:12:51.112Z,958.69
2018-07-15T12:13:51.099Z,958.65
2018-07-15T12:14:51.089Z,958.63
2018-07-15T12:15:51.077Z,958.63
2018-07-15T12:16:51.065Z,958.66
2018-07-15T12:17:51.054Z,958.66
2018-07-15T12:18:51.042Z,958.65
2018-07-15T12:19:51.031Z,958.64
2018-07-15T12:20:51.020Z,958.66
2018-07-15T12:21:51.008Z,958.66
2018-07-15T12:22:51.001Z,958.61
2018-07-15T12:23:50.987Z,958.63
2018-07-15T12:24:50.978Z,958.60
2018-07-15T12:25:50.963Z,958.61
2018-07-15T12:26:50.954Z,958.63
2018-07-15T12:27:50.942Z,958.58